sensor_id;sensor_type;location;lat;lon;timestamp;temperature;humidity
17728;DHT22;8984;49.268;12.302;2022-08-19T00:02:01;22.80;99.90
17728;DHT22;8984;49.268;12.302;2022-08-19T00:04:31;22.80;99.90
17728;DHT22;8984;49.268;12.302;2022-08-19T00:07:00;22.70;99.90
17728;DHT22;8984;49.268;12.302;2022-08-19T00:09:28;22.50;99.90
17728;DHT22;8984;49.268;12.302;2022-08-19T00:11:57;22.50;99.90
17728;DHT22;8984;49.268;12.302;2022-08-19T00:14:28;22.50;99.90
17728;DHT22;8984;49.268;12.302;2022-08-19T00:16:57;22.50;99.90
17728;DHT22;8984;49.268;12.302;2022-08-19T00:19:24;22.50;99.90
17728;DHT22;8984;49.268;12.302;2022-08-19T00:21:51;22.40;99.90
17728;DHT22;8984;49.268;12.302;2022-08-19T00:24:18;22.50;99.90
17728;DHT22;8984;49.268;12.302;2022-08-19T00:26:45;22.40;99.90
17728;DHT22;8984;49.268;12.302;2022-08-19T00:29:16;22.40;99.90
17728;DHT22;8984;49.268;12.302;2022-08-19T00:31:44;22.50;99.90
17728;DHT22;8984;49.268;12.302;2022-08-19T00:34:11;22.50;99.90
17728;DHT22;8984;49.268;12.302;2022-08-19T00:36:39;22.50;99.90
17728;DHT22;8984;49.268;12.302;2022-08-19T00:39:06;22.50;99.90
17728;DHT22;8984;49.268;12.302;2022-08-19T00:41:33;22.50;99.90
17728;DHT22;8984;49.268;12.302;2022-08-19T00:44:03;22.50;99.90
17728;DHT22;8984;49.268;12.302;2022-08-19T00:46:32;22.40;99.90
17728;DHT22;8984;49.268;12.302;2022-08-19T00:49:09;22.40;99.90
17728;DHT22;8984;49.268;12.302;2022-08-19T00:51:36;22.40;99.90
17728;DHT22;8984;49.268;12.302;2022-08-19T00:54:03;22.40;99.90
17728;DHT22;8984;49.268;12.302;2022-08-19T00:56:31;22.40;99.90
17728;DHT22;8984;49.268;12.302;2022-08-19T00:58:58;22.30;99.90
17728;DHT22;8984;49.268;12.302;2022-08-19T01:01:27;22.30;99.90
17728;DHT22;8984;49.268;12.302;2022-08-19T01:03:55;22.30;99.90
17728;DHT22;8984;49.268;12.302;2022-08-19T01:06:22;22.20;99.90
17728;DHT22;8984;49.268;12.302;2022-08-19T01:08:48;22.20;99.90
17728;DHT22;8984;49.268;12.302;2022-08-19T01:11:15;22.20;99.90
17728;DHT22;8984;49.268;12.302;2022-08-19T01:13:43;22.20;99.90
17728;DHT22;8984;49.268;12.302;2022-08-19T01:16:11;22.20;99.90
17728;DHT22;8984;49.268;12.302;2022-08-19T01:18:41;22.30;99.90
17728;DHT22;8984;49.268;12.302;2022-08-19T01:21:15;22.30;99.90
17728;DHT22;8984;49.268;12.302;2022-08-19T01:23:46;22.30;99.90
17728;DHT22;8984;49.268;12.302;2022-08-19T01:26:15;22.40;99.90
17728;DHT22;8984;49.268;12.302;2022-08-19T01:28:43;22.40;99.90
17728;DHT22;8984;49.268;12.302;2022-08-19T01:31:14;22.40;99.90
17728;DHT22;8984;49.268;12.302;2022-08-19T01:33:41;22.40;99.90
17728;DHT22;8984;49.268;12.302;2022-08-19T01:36:11;22.40;99.90
17728;DHT22;8984;49.268;12.302;2022-08-19T01:38:41;22.40;99.90
17728;DHT22;8984;49.268;12.302;2022-08-19T01:41:10;22.40;99.90
17728;DHT22;8984;49.268;12.302;2022-08-19T01:43:37;22.50;99.90
17728;DHT22;8984;49.268;12.302;2022-08-19T01:46:04;22.50;99.90
17728;DHT22;8984;49.268;12.302;2022-08-19T01:48:36;22.50;99.90
17728;DHT22;8984;49.268;12.302;2022-08-19T01:51:05;22.50;99.90
17728;DHT22;8984;49.268;12.302;2022-08-19T01:53:33;22.50;99.90
17728;DHT22;8984;49.268;12.302;2022-08-19T01:56:01;22.60;99.90
17728;DHT22;8984;49.268;12.302;2022-08-19T01:58:32;22.60;99.90
17728;DHT22;8984;49.268;12.302;2022-08-19T02:01:01;22.60;99.90
17728;DHT22;8984;49.268;12.302;2022-08-19T02:03:28;22.60;99.90
17728;DHT22;8984;49.268;12.302;2022-08-19T02:05:57;22.60;99.90
17728;DHT22;8984;49.268;12.302;2022-08-19T02:08:28;22.50;99.90
17728;DHT22;8984;49.268;12.302;2022-08-19T02:10:56;22.50;99.90
17728;DHT22;8984;49.268;12.302;2022-08-19T02:13:24;22.50;99.90
17728;DHT22;8984;49.268;12.302;2022-08-19T02:15:52;22.50;99.90
17728;DHT22;8984;49.268;12.302;2022-08-19T02:18:19;22.50;99.90
17728;DHT22;8984;49.268;12.302;2022-08-19T02:20:46;22.60;99.90
17728;DHT22;8984;49.268;12.302;2022-08-19T02:23:15;22.50;99.90
17728;DHT22;8984;49.268;12.302;2022-08-19T02:25:42;22.50;99.90
17728;DHT22;8984;49.268;12.302;2022-08-19T02:28:10;22.50;99.90
17728;DHT22;8984;49.268;12.302;2022-08-19T02:30:37;22.50;99.90
17728;DHT22;8984;49.268;12.302;2022-08-19T02:33:06;22.50;99.90
17728;DHT22;8984;49.268;12.302;2022-08-19T02:35:33;22.50;99.90
17728;DHT22;8984;49.268;12.302;2022-08-19T02:38:00;22.40;99.90
17728;DHT22;8984;49.268;12.302;2022-08-19T02:40:48;22.40;99.90
17728;DHT22;8984;49.268;12.302;2022-08-19T02:43:17;22.30;99.90
17728;DHT22;8984;49.268;12.302;2022-08-19T02:45:45;22.30;99.90
17728;DHT22;8984;49.268;12.302;2022-08-19T02:48:15;22.40;99.90
17728;DHT22;8984;49.268;12.302;2022-08-19T02:50:43;22.30;99.90
17728;DHT22;8984;49.268;12.302;2022-08-19T02:53:10;22.10;99.90
17728;DHT22;8984;49.268;12.302;2022-08-19T02:55:42;22.00;99.90
17728;DHT22;8984;49.268;12.302;2022-08-19T02:58:09;22.00;99.90
17728;DHT22;8984;49.268;12.302;2022-08-19T03:00:41;22.00;99.90
17728;DHT22;8984;49.268;12.302;2022-08-19T03:03:09;22.10;99.90
17728;DHT22;8984;49.268;12.302;2022-08-19T03:05:38;22.10;99.90
17728;DHT22;8984;49.268;12.302;2022-08-19T03:08:07;22.10;99.90
17728;DHT22;8984;49.268;12.302;2022-08-19T03:10:40;22.20;99.90
17728;DHT22;8984;49.268;12.302;2022-08-19T03:13:10;22.20;99.90
17728;DHT22;8984;49.268;12.302;2022-08-19T03:15:40;22.20;99.90
17728;DHT22;8984;49.268;12.302;2022-08-19T03:18:07;22.30;99.90
17728;DHT22;8984;49.268;12.302;2022-08-19T03:20:34;22.30;99.90
17728;DHT22;8984;49.268;12.302;2022-08-19T03:23:02;22.30;99.90
17728;DHT22;8984;49.268;12.302;2022-08-19T03:25:28;22.40;99.90
17728;DHT22;8984;49.268;12.302;2022-08-19T03:27:55;22.40;99.90
17728;DHT22;8984;49.268;12.302;2022-08-19T03:30:22;22.50;99.90
17728;DHT22;8984;49.268;12.302;2022-08-19T03:32:49;22.50;99.90
17728;DHT22;8984;49.268;12.302;2022-08-19T03:35:16;22.50;99.90
17728;DHT22;8984;49.268;12.302;2022-08-19T03:37:43;22.50;99.90
17728;DHT22;8984;49.268;12.302;2022-08-19T03:40:12;22.50;99.90
17728;DHT22;8984;49.268;12.302;2022-08-19T03:42:39;22.60;99.90
17728;DHT22;8984;49.268;12.302;2022-08-19T03:45:07;22.50;99.90
17728;DHT22;8984;49.268;12.302;2022-08-19T03:47:35;22.50;99.90
17728;DHT22;8984;49.268;12.302;2022-08-19T03:50:03;22.50;99.90
17728;DHT22;8984;49.268;12.302;2022-08-19T03:52:32;22.50;99.90
17728;DHT22;8984;49.268;12.302;2022-08-19T03:54:59;22.50;99.90
17728;DHT22;8984;49.268;12.302;2022-08-19T03:57:27;22.50;99.90
17728;DHT22;8984;49.268;12.302;2022-08-19T03:59:54;22.50;99.90
17728;DHT22;8984;49.268;12.302;2022-08-19T04:02:21;22.50;99.90
17728;DHT22;8984;49.268;12.302;2022-08-19T04:04:47;22.50;99.90
17728;DHT22;8984;49.268;12.302;2022-08-19T04:07:15;22.50;99.90
17728;DHT22;8984;49.268;12.302;2022-08-19T04:09:43;22.50;99.90
17728;DHT22;8984;49.268;12.302;2022-08-19T04:12:10;22.50;99.90
17728;DHT22;8984;49.268;12.302;2022-08-19T04:14:39;22.40;99.90
17728;DHT22;8984;49.268;12.302;2022-08-19T04:17:06;22.40;99.90
17728;DHT22;8984;49.268;12.302;2022-08-19T04:19:34;22.30;99.90
17728;DHT22;8984;49.268;12.302;2022-08-19T04:22:01;22.30;99.90
17728;DHT22;8984;49.268;12.302;2022-08-19T04:24:29;22.30;99.90
17728;DHT22;8984;49.268;12.302;2022-08-19T04:26:56;22.30;99.90
17728;DHT22;8984;49.268;12.302;2022-08-19T04:29:25;22.40;99.90
17728;DHT22;8984;49.268;12.302;2022-08-19T04:31:55;22.40;99.90
17728;DHT22;8984;49.268;12.302;2022-08-19T04:34:23;22.40;99.90
17728;DHT22;8984;49.268;12.302;2022-08-19T04:36:53;22.50;99.90
17728;DHT22;8984;49.268;12.302;2022-08-19T04:39:23;22.50;99.90
17728;DHT22;8984;49.268;12.302;2022-08-19T04:42:10;22.50;99.90
17728;DHT22;8984;49.268;12.302;2022-08-19T04:44:55;22.50;99.90
17728;DHT22;8984;49.268;12.302;2022-08-19T04:47:23;22.50;99.90
17728;DHT22;8984;49.268;12.302;2022-08-19T04:49:50;22.50;99.90
17728;DHT22;8984;49.268;12.302;2022-08-19T04:52:16;22.50;99.90
17728;DHT22;8984;49.268;12.302;2022-08-19T04:54:43;22.50;99.90
17728;DHT22;8984;49.268;12.302;2022-08-19T04:57:10;22.50;99.90
17728;DHT22;8984;49.268;12.302;2022-08-19T04:59:38;22.60;99.90
17728;DHT22;8984;49.268;12.302;2022-08-19T05:02:07;22.60;99.90
17728;DHT22;8984;49.268;12.302;2022-08-19T05:04:35;22.60;99.90
17728;DHT22;8984;49.268;12.302;2022-08-19T05:07:04;22.70;99.90
17728;DHT22;8984;49.268;12.302;2022-08-19T05:09:31;22.60;99.90
17728;DHT22;8984;49.268;12.302;2022-08-19T05:11:58;22.60;99.90
17728;DHT22;8984;49.268;12.302;2022-08-19T05:14:25;22.60;99.90
17728;DHT22;8984;49.268;12.302;2022-08-19T05:16:52;22.60;99.90
17728;DHT22;8984;49.268;12.302;2022-08-19T05:19:18;22.60;99.90
17728;DHT22;8984;49.268;12.302;2022-08-19T05:22:04;22.60;99.90
17728;DHT22;8984;49.268;12.302;2022-08-19T05:24:48;22.60;99.90
17728;DHT22;8984;49.268;12.302;2022-08-19T05:27:15;22.60;99.90
17728;DHT22;8984;49.268;12.302;2022-08-19T05:29:42;22.60;99.90
17728;DHT22;8984;49.268;12.302;2022-08-19T05:32:09;22.70;99.90
17728;DHT22;8984;49.268;12.302;2022-08-19T05:34:36;22.70;99.90
17728;DHT22;8984;49.268;12.302;2022-08-19T05:37:05;22.80;99.90
17728;DHT22;8984;49.268;12.302;2022-08-19T05:39:35;22.80;99.90
17728;DHT22;8984;49.268;12.302;2022-08-19T05:42:04;22.80;99.90
17728;DHT22;8984;49.268;12.302;2022-08-19T05:44:34;22.90;99.90
17728;DHT22;8984;49.268;12.302;2022-08-19T05:47:03;22.80;99.90
17728;DHT22;8984;49.268;12.302;2022-08-19T05:49:32;22.90;99.90
17728;DHT22;8984;49.268;12.302;2022-08-19T05:52:01;23.00;99.90
17728;DHT22;8984;49.268;12.302;2022-08-19T05:54:30;23.00;99.90
17728;DHT22;8984;49.268;12.302;2022-08-19T05:56:57;23.10;99.90
17728;DHT22;8984;49.268;12.302;2022-08-19T05:59:24;23.10;99.90
17728;DHT22;8984;49.268;12.302;2022-08-19T06:01:52;23.10;99.90
17728;DHT22;8984;49.268;12.302;2022-08-19T06:04:20;23.00;99.90
17728;DHT22;8984;49.268;12.302;2022-08-19T06:06:49;22.80;99.90
17728;DHT22;8984;49.268;12.302;2022-08-19T06:09:17;22.70;99.90
17728;DHT22;8984;49.268;12.302;2022-08-19T06:11:47;22.60;99.90
17728;DHT22;8984;49.268;12.302;2022-08-19T06:14:16;22.60;99.90
17728;DHT22;8984;49.268;12.302;2022-08-19T06:16:46;22.70;99.90
17728;DHT22;8984;49.268;12.302;2022-08-19T06:19:16;22.60;99.90
17728;DHT22;8984;49.268;12.302;2022-08-19T06:21:45;22.80;99.90
17728;DHT22;8984;49.268;12.302;2022-08-19T06:24:15;22.80;99.90
17728;DHT22;8984;49.268;12.302;2022-08-19T06:26:46;22.90;99.90
17728;DHT22;8984;49.268;12.302;2022-08-19T06:29:14;23.00;99.90
17728;DHT22;8984;49.268;12.302;2022-08-19T06:31:43;23.20;99.90
17728;DHT22;8984;49.268;12.302;2022-08-19T06:34:10;23.30;99.90
17728;DHT22;8984;49.268;12.302;2022-08-19T06:36:40;23.40;99.90
17728;DHT22;8984;49.268;12.302;2022-08-19T06:39:09;23.60;99.90
17728;DHT22;8984;49.268;12.302;2022-08-19T06:41:38;23.60;99.90
17728;DHT22;8984;49.268;12.302;2022-08-19T06:44:06;23.60;99.90
17728;DHT22;8984;49.268;12.302;2022-08-19T06:46:33;23.80;99.90
17728;DHT22;8984;49.268;12.302;2022-08-19T06:49:00;24.00;99.90
17728;DHT22;8984;49.268;12.302;2022-08-19T06:51:27;24.10;99.90
17728;DHT22;8984;49.268;12.302;2022-08-19T06:53:55;24.30;99.90
17728;DHT22;8984;49.268;12.302;2022-08-19T06:56:25;24.30;99.90
17728;DHT22;8984;49.268;12.302;2022-08-19T06:58:56;24.40;99.90
17728;DHT22;8984;49.268;12.302;2022-08-19T07:01:24;24.30;99.90
17728;DHT22;8984;49.268;12.302;2022-08-19T07:03:51;24.40;99.90
17728;DHT22;8984;49.268;12.302;2022-08-19T07:06:18;24.30;99.90
17728;DHT22;8984;49.268;12.302;2022-08-19T07:08:47;24.30;99.90
17728;DHT22;8984;49.268;12.302;2022-08-19T07:11:16;24.30;99.90
17728;DHT22;8984;49.268;12.302;2022-08-19T07:13:44;24.40;99.90
17728;DHT22;8984;49.268;12.302;2022-08-19T07:16:19;24.30;99.90
17728;DHT22;8984;49.268;12.302;2022-08-19T07:18:49;24.40;99.90
17728;DHT22;8984;49.268;12.302;2022-08-19T07:21:20;24.30;99.90
17728;DHT22;8984;49.268;12.302;2022-08-19T07:23:48;24.20;99.90
17728;DHT22;8984;49.268;12.302;2022-08-19T07:26:17;24.20;99.90
17728;DHT22;8984;49.268;12.302;2022-08-19T07:28:46;24.20;99.90
17728;DHT22;8984;49.268;12.302;2022-08-19T07:31:15;24.20;99.90
17728;DHT22;8984;49.268;12.302;2022-08-19T07:33:44;24.20;99.90
17728;DHT22;8984;49.268;12.302;2022-08-19T07:36:14;24.30;99.90
17728;DHT22;8984;49.268;12.302;2022-08-19T07:38:44;24.30;99.90
17728;DHT22;8984;49.268;12.302;2022-08-19T07:41:16;24.30;99.90
17728;DHT22;8984;49.268;12.302;2022-08-19T07:43:43;24.40;99.90
17728;DHT22;8984;49.268;12.302;2022-08-19T07:46:11;24.30;99.90
17728;DHT22;8984;49.268;12.302;2022-08-19T07:48:39;24.20;99.90
17728;DHT22;8984;49.268;12.302;2022-08-19T07:51:08;24.30;99.90
17728;DHT22;8984;49.268;12.302;2022-08-19T07:53:37;24.40;99.90
17728;DHT22;8984;49.268;12.302;2022-08-19T07:56:04;24.40;99.90
17728;DHT22;8984;49.268;12.302;2022-08-19T07:58:32;24.40;99.90
17728;DHT22;8984;49.268;12.302;2022-08-19T08:01:00;24.40;99.90
17728;DHT22;8984;49.268;12.302;2022-08-19T08:03:28;24.50;99.90
17728;DHT22;8984;49.268;12.302;2022-08-19T08:06:09;24.50;99.90
17728;DHT22;8984;49.268;12.302;2022-08-19T08:08:54;24.50;99.90
17728;DHT22;8984;49.268;12.302;2022-08-19T08:11:49;24.40;99.90
17728;DHT22;8984;49.268;12.302;2022-08-19T08:14:17;24.40;99.90
17728;DHT22;8984;49.268;12.302;2022-08-19T08:16:45;24.40;99.90
17728;DHT22;8984;49.268;12.302;2022-08-19T08:19:12;24.30;99.90
17728;DHT22;8984;49.268;12.302;2022-08-19T08:21:41;24.30;99.90
17728;DHT22;8984;49.268;12.302;2022-08-19T08:24:10;24.30;99.90
17728;DHT22;8984;49.268;12.302;2022-08-19T08:26:37;24.10;99.90
17728;DHT22;8984;49.268;12.302;2022-08-19T08:29:04;24.10;99.90
17728;DHT22;8984;49.268;12.302;2022-08-19T08:31:31;24.20;99.90
17728;DHT22;8984;49.268;12.302;2022-08-19T08:33:59;24.20;99.90
17728;DHT22;8984;49.268;12.302;2022-08-19T08:36:26;24.20;99.90
17728;DHT22;8984;49.268;12.302;2022-08-19T08:38:53;24.20;99.90
17728;DHT22;8984;49.268;12.302;2022-08-19T08:41:28;24.20;99.90
17728;DHT22;8984;49.268;12.302;2022-08-19T08:43:57;24.30;99.90
17728;DHT22;8984;49.268;12.302;2022-08-19T08:46:29;24.30;99.90
17728;DHT22;8984;49.268;12.302;2022-08-19T08:49:04;24.10;99.90
17728;DHT22;8984;49.268;12.302;2022-08-19T08:51:35;24.00;99.90
17728;DHT22;8984;49.268;12.302;2022-08-19T08:54:05;24.10;99.90
17728;DHT22;8984;49.268;12.302;2022-08-19T08:56:34;24.20;99.90
17728;DHT22;8984;49.268;12.302;2022-08-19T08:59:03;24.20;99.90
17728;DHT22;8984;49.268;12.302;2022-08-19T09:01:32;24.00;99.90
17728;DHT22;8984;49.268;12.302;2022-08-19T09:03:59;24.20;99.90
17728;DHT22;8984;49.268;12.302;2022-08-19T09:06:31;24.50;99.90
17728;DHT22;8984;49.268;12.302;2022-08-19T09:09:01;24.60;99.90
17728;DHT22;8984;49.268;12.302;2022-08-19T09:11:47;24.80;99.90
17728;DHT22;8984;49.268;12.302;2022-08-19T09:14:32;24.60;99.90
17728;DHT22;8984;49.268;12.302;2022-08-19T09:16:59;24.60;99.90
17728;DHT22;8984;49.268;12.302;2022-08-19T09:19:29;24.70;99.90
17728;DHT22;8984;49.268;12.302;2022-08-19T09:21:56;24.80;99.90
17728;DHT22;8984;49.268;12.302;2022-08-19T09:24:25;24.50;99.90
17728;DHT22;8984;49.268;12.302;2022-08-19T09:26:53;24.60;99.90
17728;DHT22;8984;49.268;12.302;2022-08-19T09:29:20;24.60;99.90
17728;DHT22;8984;49.268;12.302;2022-08-19T09:31:47;24.60;99.90
17728;DHT22;8984;49.268;12.302;2022-08-19T09:34:14;24.70;99.90
17728;DHT22;8984;49.268;12.302;2022-08-19T09:36:41;24.60;99.90
17728;DHT22;8984;49.268;12.302;2022-08-19T09:39:08;24.60;99.90
17728;DHT22;8984;49.268;12.302;2022-08-19T09:41:35;24.60;99.90
17728;DHT22;8984;49.268;12.302;2022-08-19T09:44:03;24.90;99.90
17728;DHT22;8984;49.268;12.302;2022-08-19T09:46:30;24.90;99.90
17728;DHT22;8984;49.268;12.302;2022-08-19T09:48:58;24.90;99.90
17728;DHT22;8984;49.268;12.302;2022-08-19T09:51:26;25.00;99.90
17728;DHT22;8984;49.268;12.302;2022-08-19T09:53:58;25.20;99.90
17728;DHT22;8984;49.268;12.302;2022-08-19T09:56:25;25.30;99.90
17728;DHT22;8984;49.268;12.302;2022-08-19T09:58:52;25.20;99.90
17728;DHT22;8984;49.268;12.302;2022-08-19T10:01:22;25.20;99.90
17728;DHT22;8984;49.268;12.302;2022-08-19T10:03:52;25.30;99.90
17728;DHT22;8984;49.268;12.302;2022-08-19T10:06:20;25.30;99.90
17728;DHT22;8984;49.268;12.302;2022-08-19T10:08:48;25.30;99.90
17728;DHT22;8984;49.268;12.302;2022-08-19T10:11:17;25.50;99.90
17728;DHT22;8984;49.268;12.302;2022-08-19T10:13:44;25.60;99.90
17728;DHT22;8984;49.268;12.302;2022-08-19T10:16:12;25.70;99.90
17728;DHT22;8984;49.268;12.302;2022-08-19T10:18:41;25.80;99.90
17728;DHT22;8984;49.268;12.302;2022-08-19T10:21:11;26.00;99.90
17728;DHT22;8984;49.268;12.302;2022-08-19T10:23:40;26.10;99.90
17728;DHT22;8984;49.268;12.302;2022-08-19T10:26:09;26.10;99.90
17728;DHT22;8984;49.268;12.302;2022-08-19T10:28:37;26.20;99.90
17728;DHT22;8984;49.268;12.302;2022-08-19T10:31:05;26.30;99.90
17728;DHT22;8984;49.268;12.302;2022-08-19T10:33:32;26.40;99.90
17728;DHT22;8984;49.268;12.302;2022-08-19T10:36:02;26.30;99.90
17728;DHT22;8984;49.268;12.302;2022-08-19T10:38:29;26.20;99.90
17728;DHT22;8984;49.268;12.302;2022-08-19T10:40:57;26.40;99.90
17728;DHT22;8984;49.268;12.302;2022-08-19T10:43:24;26.40;99.90
17728;DHT22;8984;49.268;12.302;2022-08-19T10:45:52;26.30;99.90
17728;DHT22;8984;49.268;12.302;2022-08-19T10:48:21;26.00;99.90
17728;DHT22;8984;49.268;12.302;2022-08-19T10:50:48;26.20;99.90
17728;DHT22;8984;49.268;12.302;2022-08-19T10:53:33;26.30;99.90
17728;DHT22;8984;49.268;12.302;2022-08-19T10:56:00;26.50;99.90
17728;DHT22;8984;49.268;12.302;2022-08-19T10:58:47;26.40;99.90
17728;DHT22;8984;49.268;12.302;2022-08-19T11:01:14;26.40;99.90
17728;DHT22;8984;49.268;12.302;2022-08-19T11:03:41;26.30;99.90
17728;DHT22;8984;49.268;12.302;2022-08-19T11:06:11;26.40;99.90
17728;DHT22;8984;49.268;12.302;2022-08-19T11:08:42;26.20;99.90
17728;DHT22;8984;49.268;12.302;2022-08-19T11:11:12;26.30;99.90
17728;DHT22;8984;49.268;12.302;2022-08-19T11:13:40;26.00;99.90
17728;DHT22;8984;49.268;12.302;2022-08-19T11:16:10;26.00;99.90
17728;DHT22;8984;49.268;12.302;2022-08-19T11:18:40;25.60;99.90
17728;DHT22;8984;49.268;12.302;2022-08-19T11:21:11;25.60;99.90
17728;DHT22;8984;49.268;12.302;2022-08-19T11:23:41;25.70;99.90
17728;DHT22;8984;49.268;12.302;2022-08-19T11:26:09;25.60;99.90
17728;DHT22;8984;49.268;12.302;2022-08-19T11:28:36;26.00;99.90
17728;DHT22;8984;49.268;12.302;2022-08-19T11:31:10;26.20;99.90
17728;DHT22;8984;49.268;12.302;2022-08-19T11:33:37;25.90;99.90
17728;DHT22;8984;49.268;12.302;2022-08-19T11:36:05;25.90;99.90
17728;DHT22;8984;49.268;12.302;2022-08-19T11:38:34;26.00;99.90
17728;DHT22;8984;49.268;12.302;2022-08-19T11:41:06;26.00;99.90
17728;DHT22;8984;49.268;12.302;2022-08-19T11:43:34;26.00;99.90
17728;DHT22;8984;49.268;12.302;2022-08-19T11:46:04;26.10;99.90
17728;DHT22;8984;49.268;12.302;2022-08-19T11:48:35;26.20;99.90
17728;DHT22;8984;49.268;12.302;2022-08-19T11:51:05;26.30;99.90
17728;DHT22;8984;49.268;12.302;2022-08-19T11:53:33;26.40;99.90
17728;DHT22;8984;49.268;12.302;2022-08-19T11:56:02;26.50;99.90
17728;DHT22;8984;49.268;12.302;2022-08-19T11:58:30;26.30;99.90
17728;DHT22;8984;49.268;12.302;2022-08-19T12:00:58;25.90;99.90
17728;DHT22;8984;49.268;12.302;2022-08-19T12:03:25;25.90;99.90
17728;DHT22;8984;49.268;12.302;2022-08-19T12:05:51;25.80;99.90
17728;DHT22;8984;49.268;12.302;2022-08-19T12:08:19;26.00;99.90
17728;DHT22;8984;49.268;12.302;2022-08-19T12:10:46;25.40;99.90
17728;DHT22;8984;49.268;12.302;2022-08-19T12:13:14;25.60;99.90
17728;DHT22;8984;49.268;12.302;2022-08-19T12:15:45;25.50;99.90
17728;DHT22;8984;49.268;12.302;2022-08-19T12:18:13;25.40;99.90
17728;DHT22;8984;49.268;12.302;2022-08-19T12:20:42;25.40;99.90
17728;DHT22;8984;49.268;12.302;2022-08-19T12:23:09;25.60;99.90
17728;DHT22;8984;49.268;12.302;2022-08-19T12:25:37;25.70;99.90
17728;DHT22;8984;49.268;12.302;2022-08-19T12:28:04;25.10;99.90
17728;DHT22;8984;49.268;12.302;2022-08-19T12:30:32;25.20;99.90
17728;DHT22;8984;49.268;12.302;2022-08-19T12:32:58;25.50;99.90
17728;DHT22;8984;49.268;12.302;2022-08-19T12:35:25;25.50;99.90
17728;DHT22;8984;49.268;12.302;2022-08-19T12:37:52;25.70;99.90
17728;DHT22;8984;49.268;12.302;2022-08-19T12:40:19;25.70;99.90
17728;DHT22;8984;49.268;12.302;2022-08-19T12:42:46;25.80;99.90
17728;DHT22;8984;49.268;12.302;2022-08-19T12:45:15;26.00;99.90
17728;DHT22;8984;49.268;12.302;2022-08-19T12:47:43;26.10;99.90
17728;DHT22;8984;49.268;12.302;2022-08-19T12:50:12;26.30;99.90
17728;DHT22;8984;49.268;12.302;2022-08-19T12:52:38;26.50;99.90
17728;DHT22;8984;49.268;12.302;2022-08-19T12:55:08;26.60;99.90
17728;DHT22;8984;49.268;12.302;2022-08-19T12:57:35;26.80;99.90
17728;DHT22;8984;49.268;12.302;2022-08-19T13:00:07;26.90;99.90
17728;DHT22;8984;49.268;12.302;2022-08-19T13:02:37;26.90;99.90
17728;DHT22;8984;49.268;12.302;2022-08-19T13:05:07;26.90;99.90
17728;DHT22;8984;49.268;12.302;2022-08-19T13:07:35;26.90;99.90
17728;DHT22;8984;49.268;12.302;2022-08-19T13:10:04;26.80;99.90
17728;DHT22;8984;49.268;12.302;2022-08-19T13:12:31;26.90;99.90
17728;DHT22;8984;49.268;12.302;2022-08-19T13:14:57;26.90;99.90
17728;DHT22;8984;49.268;12.302;2022-08-19T13:17:24;26.90;99.90
17728;DHT22;8984;49.268;12.302;2022-08-19T13:19:51;26.90;99.90
17728;DHT22;8984;49.268;12.302;2022-08-19T13:22:19;26.90;99.90
17728;DHT22;8984;49.268;12.302;2022-08-19T13:24:46;26.80;99.90
17728;DHT22;8984;49.268;12.302;2022-08-19T13:27:13;26.70;99.90
17728;DHT22;8984;49.268;12.302;2022-08-19T13:29:40;26.60;99.90
17728;DHT22;8984;49.268;12.302;2022-08-19T13:32:25;26.40;99.90
17728;DHT22;8984;49.268;12.302;2022-08-19T13:35:09;26.10;99.90
17728;DHT22;8984;49.268;12.302;2022-08-19T13:37:37;26.10;99.90
17728;DHT22;8984;49.268;12.302;2022-08-19T13:40:09;25.80;99.90
17728;DHT22;8984;49.268;12.302;2022-08-19T13:42:38;25.40;99.90
17728;DHT22;8984;49.268;12.302;2022-08-19T13:45:06;25.40;99.90
17728;DHT22;8984;49.268;12.302;2022-08-19T13:47:33;25.20;99.90
17728;DHT22;8984;49.268;12.302;2022-08-19T13:50:02;25.10;99.90
17728;DHT22;8984;49.268;12.302;2022-08-19T13:52:29;25.10;99.90
17728;DHT22;8984;49.268;12.302;2022-08-19T13:54:57;25.00;99.90
17728;DHT22;8984;49.268;12.302;2022-08-19T13:57:24;24.90;99.90
17728;DHT22;8984;49.268;12.302;2022-08-19T13:59:51;24.80;99.90
17728;DHT22;8984;49.268;12.302;2022-08-19T14:02:17;24.70;99.90
17728;DHT22;8984;49.268;12.302;2022-08-19T14:04:44;24.40;99.90
17728;DHT22;8984;49.268;12.302;2022-08-19T14:07:11;24.20;99.90
17728;DHT22;8984;49.268;12.302;2022-08-19T14:09:38;24.20;99.90
17728;DHT22;8984;49.268;12.302;2022-08-19T14:12:07;24.20;99.90
17728;DHT22;8984;49.268;12.302;2022-08-19T14:14:36;24.00;99.90
17728;DHT22;8984;49.268;12.302;2022-08-19T14:17:05;24.00;99.90
17728;DHT22;8984;49.268;12.302;2022-08-19T14:19:32;23.90;99.90
17728;DHT22;8984;49.268;12.302;2022-08-19T14:21:59;24.00;99.90
17728;DHT22;8984;49.268;12.302;2022-08-19T14:24:26;23.90;99.90
17728;DHT22;8984;49.268;12.302;2022-08-19T14:26:53;24.00;99.90
17728;DHT22;8984;49.268;12.302;2022-08-19T14:29:21;23.90;99.90
17728;DHT22;8984;49.268;12.302;2022-08-19T14:31:48;24.00;99.90
17728;DHT22;8984;49.268;12.302;2022-08-19T14:34:15;23.90;99.90
17728;DHT22;8984;49.268;12.302;2022-08-19T14:36:41;23.90;99.90
17728;DHT22;8984;49.268;12.302;2022-08-19T14:39:09;23.80;99.90
17728;DHT22;8984;49.268;12.302;2022-08-19T14:41:36;23.70;99.90
17728;DHT22;8984;49.268;12.302;2022-08-19T14:44:03;23.60;99.90
17728;DHT22;8984;49.268;12.302;2022-08-19T14:46:31;23.60;99.90
17728;DHT22;8984;49.268;12.302;2022-08-19T14:48:57;23.60;99.90
17728;DHT22;8984;49.268;12.302;2022-08-19T14:51:25;23.60;99.90
17728;DHT22;8984;49.268;12.302;2022-08-19T14:53:52;23.70;99.90
17728;DHT22;8984;49.268;12.302;2022-08-19T14:56:21;23.60;99.90
17728;DHT22;8984;49.268;12.302;2022-08-19T14:58:48;23.60;99.90
17728;DHT22;8984;49.268;12.302;2022-08-19T15:01:17;23.60;99.90
17728;DHT22;8984;49.268;12.302;2022-08-19T15:03:47;23.70;99.90
17728;DHT22;8984;49.268;12.302;2022-08-19T15:06:14;23.80;99.90
17728;DHT22;8984;49.268;12.302;2022-08-19T15:08:42;23.90;99.90
17728;DHT22;8984;49.268;12.302;2022-08-19T15:11:12;23.90;99.90
17728;DHT22;8984;49.268;12.302;2022-08-19T15:13:40;24.00;99.90
17728;DHT22;8984;49.268;12.302;2022-08-19T15:16:07;24.00;99.90
17728;DHT22;8984;49.268;12.302;2022-08-19T15:18:34;24.10;99.90
17728;DHT22;8984;49.268;12.302;2022-08-19T15:21:03;24.10;99.90
17728;DHT22;8984;49.268;12.302;2022-08-19T15:23:30;24.10;99.90
17728;DHT22;8984;49.268;12.302;2022-08-19T15:25:57;24.10;99.90
17728;DHT22;8984;49.268;12.302;2022-08-19T15:28:25;24.10;99.90
17728;DHT22;8984;49.268;12.302;2022-08-19T15:30:52;24.20;99.90
17728;DHT22;8984;49.268;12.302;2022-08-19T15:33:19;24.10;99.90
17728;DHT22;8984;49.268;12.302;2022-08-19T15:35:47;24.00;99.90
17728;DHT22;8984;49.268;12.302;2022-08-19T15:38:17;23.70;99.90
17728;DHT22;8984;49.268;12.302;2022-08-19T15:40:47;23.60;99.90